sensor_id;sensor_type;location;lat;lon;timestamp;temperature;humidity
77056;SHT30;67471;44.918;8.614;2023-05-10T00:02:36;17.20;84.73
77056;SHT30;67471;44.918;8.614;2023-05-10T00:05:40;17.09;83.78
77056;SHT30;67471;44.918;8.614;2023-05-10T00:08:45;16.53;85.08
77056;SHT30;67471;44.918;8.614;2023-05-10T00:11:48;16.36;86.16
77056;SHT30;67471;44.918;8.614;2023-05-10T00:14:52;16.21;86.90
77056;SHT30;67471;44.918;8.614;2023-05-10T00:17:56;16.35;86.77
77056;SHT30;67471;44.918;8.614;2023-05-10T00:21:00;16.28;87.11
77056;SHT30;67471;44.918;8.614;2023-05-10T00:24:04;16.10;87.50
77056;SHT30;67471;44.918;8.614;2023-05-10T00:27:08;16.17;87.62
77056;SHT30;67471;44.918;8.614;2023-05-10T00:30:12;16.19;86.82
77056;SHT30;67471;44.918;8.614;2023-05-10T00:33:16;16.15;87.38
77056;SHT30;67471;44.918;8.614;2023-05-10T00:36:19;15.96;87.70
77056;SHT30;67471;44.918;8.614;2023-05-10T00:39:24;16.05;87.46
77056;SHT30;67471;44.918;8.614;2023-05-10T00:42:30;16.25;87.51
77056;SHT30;67471;44.918;8.614;2023-05-10T00:45:35;16.39;86.41
77056;SHT30;67471;44.918;8.614;2023-05-10T00:48:39;16.42;86.97
77056;SHT30;67471;44.918;8.614;2023-05-10T00:51:43;16.75;86.52
77056;SHT30;67471;44.918;8.614;2023-05-10T00:54:48;16.99;84.91
77056;SHT30;67471;44.918;8.614;2023-05-10T00:57:52;17.13;84.45
77056;SHT30;67471;44.918;8.614;2023-05-10T01:00:56;17.23;84.07
77056;SHT30;67471;44.918;8.614;2023-05-10T01:04:00;17.19;83.96
77056;SHT30;67471;44.918;8.614;2023-05-10T01:07:04;17.06;84.34
77056;SHT30;67471;44.918;8.614;2023-05-10T01:10:08;16.96;84.47
77056;SHT30;67471;44.918;8.614;2023-05-10T01:13:13;16.89;84.97
77056;SHT30;67471;44.918;8.614;2023-05-10T01:16:21;17.02;84.50
77056;SHT30;67471;44.918;8.614;2023-05-10T01:19:27;17.00;84.34
77056;SHT30;67471;44.918;8.614;2023-05-10T01:26:14;16.60;85.51
77056;SHT30;67471;44.918;8.614;2023-05-10T01:36:15;16.19;87.91
77056;SHT30;67471;44.918;8.614;2023-05-10T01:39:28;16.41;87.30
77056;SHT30;67471;44.918;8.614;2023-05-10T01:42:47;16.73;86.52
77056;SHT30;67471;44.918;8.614;2023-05-10T01:46:03;16.52;86.47
77056;SHT30;67471;44.918;8.614;2023-05-10T01:49:23;16.52;86.45
77056;SHT30;67471;44.918;8.614;2023-05-10T01:52:32;16.29;86.79
77056;SHT30;67471;44.918;8.614;2023-05-10T01:55:46;16.22;87.30
77056;SHT30;67471;44.918;8.614;2023-05-10T01:58:51;16.15;86.24
77056;SHT30;67471;44.918;8.614;2023-05-10T02:01:58;16.00;87.56
77056;SHT30;67471;44.918;8.614;2023-05-10T02:05:07;15.76;88.30
77056;SHT30;67471;44.918;8.614;2023-05-10T02:08:12;15.71;89.19
77056;SHT30;67471;44.918;8.614;2023-05-10T02:11:18;15.61;89.51
77056;SHT30;67471;44.918;8.614;2023-05-10T02:14:25;15.66;89.78
77056;SHT30;67471;44.918;8.614;2023-05-10T02:17:31;15.76;90.35
77056;SHT30;67471;44.918;8.614;2023-05-10T02:20:35;15.77;90.78
77056;SHT30;67471;44.918;8.614;2023-05-10T02:23:40;15.74;90.66
77056;SHT30;67471;44.918;8.614;2023-05-10T02:26:45;15.63;90.96
77056;SHT30;67471;44.918;8.614;2023-05-10T02:29:52;15.74;90.97
77056;SHT30;67471;44.918;8.614;2023-05-10T02:32:57;15.60;91.48
77056;SHT30;67471;44.918;8.614;2023-05-10T02:36:02;15.42;92.31
77056;SHT30;67471;44.918;8.614;2023-05-10T02:39:07;15.42;91.81
77056;SHT30;67471;44.918;8.614;2023-05-10T02:42:18;15.54;91.69
77056;SHT30;67471;44.918;8.614;2023-05-10T02:45:27;15.35;92.43
77056;SHT30;67471;44.918;8.614;2023-05-10T02:48:31;15.43;91.82
77056;SHT30;67471;44.918;8.614;2023-05-10T02:51:38;15.35;92.01
77056;SHT30;67471;44.918;8.614;2023-05-10T02:54:45;15.35;92.18
77056;SHT30;67471;44.918;8.614;2023-05-10T02:57:57;15.40;92.03
77056;SHT30;67471;44.918;8.614;2023-05-10T03:01:01;15.59;91.38
77056;SHT30;67471;44.918;8.614;2023-05-10T03:04:05;15.50;91.01
77056;SHT30;67471;44.918;8.614;2023-05-10T03:07:10;15.53;91.06
77056;SHT30;67471;44.918;8.614;2023-05-10T03:10:14;15.59;90.88
77056;SHT30;67471;44.918;8.614;2023-05-10T03:13:32;15.66;90.33
77056;SHT30;67471;44.918;8.614;2023-05-10T03:17:20;15.83;90.04
77056;SHT30;67471;44.918;8.614;2023-05-10T03:20:48;15.88;89.24
77056;SHT30;67471;44.918;8.614;2023-05-10T03:24:05;16.08;88.58
77056;SHT30;67471;44.918;8.614;2023-05-10T03:27:11;16.17;87.73
77056;SHT30;67471;44.918;8.614;2023-05-10T03:30:16;16.28;86.36
77056;SHT30;67471;44.918;8.614;2023-05-10T03:33:20;16.28;86.67
77056;SHT30;67471;44.918;8.614;2023-05-10T03:36:24;16.24;86.05
77056;SHT30;67471;44.918;8.614;2023-05-10T03:39:28;16.17;86.56
77056;SHT30;67471;44.918;8.614;2023-05-10T03:42:35;16.11;85.90
77056;SHT30;67471;44.918;8.614;2023-05-10T03:45:39;16.00;85.98
77056;SHT30;67471;44.918;8.614;2023-05-10T03:48:43;16.08;86.09
77056;SHT30;67471;44.918;8.614;2023-05-10T03:51:47;15.64;86.65
77056;SHT30;67471;44.918;8.614;2023-05-10T03:54:51;15.59;86.97
77056;SHT30;67471;44.918;8.614;2023-05-10T03:57:55;15.66;86.67
77056;SHT30;67471;44.918;8.614;2023-05-10T04:00:59;15.50;87.02
77056;SHT30;67471;44.918;8.614;2023-05-10T04:04:03;15.61;87.14
77056;SHT30;67471;44.918;8.614;2023-05-10T04:07:08;15.59;87.30
77056;SHT30;67471;44.918;8.614;2023-05-10T04:10:13;15.46;87.60
77056;SHT30;67471;44.918;8.614;2023-05-10T04:13:17;15.47;87.49
77056;SHT30;67471;44.918;8.614;2023-05-10T04:16:21;15.43;87.82
77056;SHT30;67471;44.918;8.614;2023-05-10T04:19:29;15.57;87.30
77056;SHT30;67471;44.918;8.614;2023-05-10T04:22:33;15.73;86.86
77056;SHT30;67471;44.918;8.614;2023-05-10T04:25:37;15.79;86.26
77056;SHT30;67471;44.918;8.614;2023-05-10T04:28:41;15.79;86.19
77056;SHT30;67471;44.918;8.614;2023-05-10T04:31:45;15.63;86.65
77056;SHT30;67471;44.918;8.614;2023-05-10T04:34:48;15.74;86.24
77056;SHT30;67471;44.918;8.614;2023-05-10T04:37:52;15.39;87.06
77056;SHT30;67471;44.918;8.614;2023-05-10T04:41:06;15.60;85.70
77056;SHT30;67471;44.918;8.614;2023-05-10T04:44:10;15.30;85.85
77056;SHT30;67471;44.918;8.614;2023-05-10T04:47:14;14.84;86.30
77056;SHT30;67471;44.918;8.614;2023-05-10T04:50:19;14.67;87.01
77056;SHT30;67471;44.918;8.614;2023-05-10T04:53:23;14.38;87.39
77056;SHT30;67471;44.918;8.614;2023-05-10T04:56:27;14.21;88.48
77056;SHT30;67471;44.918;8.614;2023-05-10T04:59:30;13.96;89.36
77056;SHT30;67471;44.918;8.614;2023-05-10T05:02:34;13.80;89.75
77056;SHT30;67471;44.918;8.614;2023-05-10T05:05:38;13.71;90.19
77056;SHT30;67471;44.918;8.614;2023-05-10T05:08:42;13.75;90.60
77056;SHT30;67471;44.918;8.614;2023-05-10T05:11:46;13.76;90.44
77056;SHT30;67471;44.918;8.614;2023-05-10T05:14:49;13.93;89.77
77056;SHT30;67471;44.918;8.614;2023-05-10T05:17:53;14.05;89.95
77056;SHT30;67471;44.918;8.614;2023-05-10T05:20:57;14.36;89.16
77056;SHT30;67471;44.918;8.614;2023-05-10T05:24:01;14.77;87.81
77056;SHT30;67471;44.918;8.614;2023-05-10T05:27:05;14.82;86.96
77056;SHT30;67471;44.918;8.614;2023-05-10T05:30:09;14.82;86.74
77056;SHT30;67471;44.918;8.614;2023-05-10T05:33:14;14.64;86.97
77056;SHT30;67471;44.918;8.614;2023-05-10T05:36:19;14.80;86.47
77056;SHT30;67471;44.918;8.614;2023-05-10T05:39:23;14.77;86.75
77056;SHT30;67471;44.918;8.614;2023-05-10T05:42:27;14.85;86.67
77056;SHT30;67471;44.918;8.614;2023-05-10T05:45:31;14.77;86.58
77056;SHT30;67471;44.918;8.614;2023-05-10T05:48:35;14.92;86.25
77056;SHT30;67471;44.918;8.614;2023-05-10T05:51:39;14.88;85.70
77056;SHT30;67471;44.918;8.614;2023-05-10T05:54:43;15.15;85.33
77056;SHT30;67471;44.918;8.614;2023-05-10T05:57:47;15.06;85.27
77056;SHT30;67471;44.918;8.614;2023-05-10T06:00:51;14.98;85.46
77056;SHT30;67471;44.918;8.614;2023-05-10T06:03:57;14.98;85.61
77056;SHT30;67471;44.918;8.614;2023-05-10T06:07:01;14.80;85.97
77056;SHT30;67471;44.918;8.614;2023-05-10T06:10:06;14.75;86.56
77056;SHT30;67471;44.918;8.614;2023-05-10T06:13:10;14.64;86.86
77056;SHT30;67471;44.918;8.614;2023-05-10T06:16:14;14.60;86.89
77056;SHT30;67471;44.918;8.614;2023-05-10T06:19:17;14.93;85.92
77056;SHT30;67471;44.918;8.614;2023-05-10T06:22:21;14.81;85.56
77056;SHT30;67471;44.918;8.614;2023-05-10T06:25:26;14.80;85.42
77056;SHT30;67471;44.918;8.614;2023-05-10T06:28:30;14.91;84.99
77056;SHT30;67471;44.918;8.614;2023-05-10T06:31:35;15.09;83.48
77056;SHT30;67471;44.918;8.614;2023-05-10T06:34:39;15.03;84.37
77056;SHT30;67471;44.918;8.614;2023-05-10T06:37:43;15.26;83.39
77056;SHT30;67471;44.918;8.614;2023-05-10T06:40:47;15.12;83.21
77056;SHT30;67471;44.918;8.614;2023-05-10T06:43:50;15.22;82.61
77056;SHT30;67471;44.918;8.614;2023-05-10T06:46:55;15.28;82.34
77056;SHT30;67471;44.918;8.614;2023-05-10T06:49:59;15.26;82.42
77056;SHT30;67471;44.918;8.614;2023-05-10T06:53:03;14.87;82.87
77056;SHT30;67471;44.918;8.614;2023-05-10T06:56:07;15.15;82.85
77056;SHT30;67471;44.918;8.614;2023-05-10T06:59:11;15.36;81.99
77056;SHT30;67471;44.918;8.614;2023-05-10T07:02:15;15.54;81.23
77056;SHT30;67471;44.918;8.614;2023-05-10T07:05:19;15.40;80.87
77056;SHT30;67471;44.918;8.614;2023-05-10T07:08:23;15.64;80.51
77056;SHT30;67471;44.918;8.614;2023-05-10T07:11:27;15.59;80.67
77056;SHT30;67471;44.918;8.614;2023-05-10T07:14:30;15.60;81.00
77056;SHT30;67471;44.918;8.614;2023-05-10T07:17:36;15.64;80.81
77056;SHT30;67471;44.918;8.614;2023-05-10T07:20:40;15.80;80.17
77056;SHT30;67471;44.918;8.614;2023-05-10T07:23:44;15.84;79.47
77056;SHT30;67471;44.918;8.614;2023-05-10T07:26:48;16.07;79.28
77056;SHT30;67471;44.918;8.614;2023-05-10T07:29:51;16.05;78.63
77056;SHT30;67471;44.918;8.614;2023-05-10T07:32:55;16.15;78.56
77056;SHT30;67471;44.918;8.614;2023-05-10T07:35:59;16.26;78.17
77056;SHT30;67471;44.918;8.614;2023-05-10T07:39:03;16.35;77.82
77056;SHT30;67471;44.918;8.614;2023-05-10T07:42:07;16.41;77.32
77056;SHT30;67471;44.918;8.614;2023-05-10T07:45:11;16.59;77.06
77056;SHT30;67471;44.918;8.614;2023-05-10T07:48:15;16.81;77.07
77056;SHT30;67471;44.918;8.614;2023-05-10T07:51:19;16.97;76.56
77056;SHT30;67471;44.918;8.614;2023-05-10T07:54:23;17.02;76.07
77056;SHT30;67471;44.918;8.614;2023-05-10T07:57:27;17.32;74.55
77056;SHT30;67471;44.918;8.614;2023-05-10T08:00:31;17.99;73.52
77056;SHT30;67471;44.918;8.614;2023-05-10T08:03:35;18.47;71.51
77056;SHT30;67471;44.918;8.614;2023-05-10T08:06:39;18.54;70.92
77056;SHT30;67471;44.918;8.614;2023-05-10T08:09:43;18.64;70.15
77056;SHT30;67471;44.918;8.614;2023-05-10T08:12:47;19.01;68.69
77056;SHT30;67471;44.918;8.614;2023-05-10T08:15:51;19.14;68.02
77056;SHT30;67471;44.918;8.614;2023-05-10T08:18:56;19.35;67.11
77056;SHT30;67471;44.918;8.614;2023-05-10T08:22:00;20.03;65.32
77056;SHT30;67471;44.918;8.614;2023-05-10T08:25:04;20.34;63.79
77056;SHT30;67471;44.918;8.614;2023-05-10T08:28:08;20.48;63.27
77056;SHT30;67471;44.918;8.614;2023-05-10T08:31:12;20.68;63.17
77056;SHT30;67471;44.918;8.614;2023-05-10T08:34:15;21.22;61.59
77056;SHT30;67471;44.918;8.614;2023-05-10T08:37:19;21.51;60.31
77056;SHT30;67471;44.918;8.614;2023-05-10T08:40:24;21.64;59.76
77056;SHT30;67471;44.918;8.614;2023-05-10T08:43:29;21.67;59.47
77056;SHT30;67471;44.918;8.614;2023-05-10T08:46:33;21.94;59.77
77056;SHT30;67471;44.918;8.614;2023-05-10T08:49:43;22.06;59.11
77056;SHT30;67471;44.918;8.614;2023-05-10T08:52:50;21.79;59.00
77056;SHT30;67471;44.918;8.614;2023-05-10T08:55:55;21.67;59.75
77056;SHT30;67471;44.918;8.614;2023-05-10T08:58:58;21.28;60.56
77056;SHT30;67471;44.918;8.614;2023-05-10T09:02:04;21.14;60.25
77056;SHT30;67471;44.918;8.614;2023-05-10T09:05:08;21.03;59.96
77056;SHT30;67471;44.918;8.614;2023-05-10T09:08:14;21.14;59.24
77056;SHT30;67471;44.918;8.614;2023-05-10T09:11:21;21.23;59.44
77056;SHT30;67471;44.918;8.614;2023-05-10T09:14:25;21.50;59.03
77056;SHT30;67471;44.918;8.614;2023-05-10T09:17:29;21.99;58.39
77056;SHT30;67471;44.918;8.614;2023-05-10T09:20:33;22.13;57.53
77056;SHT30;67471;44.918;8.614;2023-05-10T09:23:37;22.47;56.29
77056;SHT30;67471;44.918;8.614;2023-05-10T09:26:48;22.74;55.50
77056;SHT30;67471;44.918;8.614;2023-05-10T09:29:52;22.59;56.34
77056;SHT30;67471;44.918;8.614;2023-05-10T09:32:59;22.56;56.06
77056;SHT30;67471;44.918;8.614;2023-05-10T09:36:06;22.88;54.69
77056;SHT30;67471;44.918;8.614;2023-05-10T09:39:11;23.28;52.76
77056;SHT30;67471;44.918;8.614;2023-05-10T09:42:18;23.56;52.36
77056;SHT30;67471;44.918;8.614;2023-05-10T09:45:24;23.82;51.49
77056;SHT30;67471;44.918;8.614;2023-05-10T09:48:27;24.12;50.18
77056;SHT30;67471;44.918;8.614;2023-05-10T09:51:31;24.64;49.24
77056;SHT30;67471;44.918;8.614;2023-05-10T09:54:35;24.45;50.00
77056;SHT30;67471;44.918;8.614;2023-05-10T09:57:39;24.85;48.71
77056;SHT30;67471;44.918;8.614;2023-05-10T10:00:44;24.74;48.57
77056;SHT30;67471;44.918;8.614;2023-05-10T10:03:49;24.76;48.33
77056;SHT30;67471;44.918;8.614;2023-05-10T10:07:03;24.82;48.07
77056;SHT30;67471;44.918;8.614;2023-05-10T10:10:08;25.11;47.56
77056;SHT30;67471;44.918;8.614;2023-05-10T10:13:14;24.84;48.15
77056;SHT30;67471;44.918;8.614;2023-05-10T10:16:19;24.89;48.10
77056;SHT30;67471;44.918;8.614;2023-05-10T10:19:23;24.41;49.33
77056;SHT30;67471;44.918;8.614;2023-05-10T10:22:27;24.44;49.22
77056;SHT30;67471;44.918;8.614;2023-05-10T10:25:32;24.76;49.08
77056;SHT30;67471;44.918;8.614;2023-05-10T10:28:47;24.60;48.75
77056;SHT30;67471;44.918;8.614;2023-05-10T10:35:18;24.85;49.00
77056;SHT30;67471;44.918;8.614;2023-05-10T10:41:56;23.14;50.52
77056;SHT30;67471;44.918;8.614;2023-05-10T10:45:12;22.97;51.26
77056;SHT30;67471;44.918;8.614;2023-05-10T10:48:21;22.88;52.40
77056;SHT30;67471;44.918;8.614;2023-05-10T10:51:33;23.42;50.41
77056;SHT30;67471;44.918;8.614;2023-05-10T10:54:51;23.80;50.05
77056;SHT30;67471;44.918;8.614;2023-05-10T10:57:56;23.92;49.60
77056;SHT30;67471;44.918;8.614;2023-05-10T11:01:16;23.27;50.64
77056;SHT30;67471;44.918;8.614;2023-05-10T11:04:20;23.11;52.94
77056;SHT30;67471;44.918;8.614;2023-05-10T11:07:24;23.49;51.28
77056;SHT30;67471;44.918;8.614;2023-05-10T11:10:28;23.08;52.73
77056;SHT30;67471;44.918;8.614;2023-05-10T11:13:54;23.46;51.81
77056;SHT30;67471;44.918;8.614;2023-05-10T11:16:58;23.63;51.12
77056;SHT30;67471;44.918;8.614;2023-05-10T11:20:14;23.24;52.12
77056;SHT30;67471;44.918;8.614;2023-05-10T11:23:17;23.38;52.40
77056;SHT30;67471;44.918;8.614;2023-05-10T11:26:31;23.10;50.81
77056;SHT30;67471;44.918;8.614;2023-05-10T11:29:34;23.21;52.07
77056;SHT30;67471;44.918;8.614;2023-05-10T11:32:39;23.01;52.21
77056;SHT30;67471;44.918;8.614;2023-05-10T11:35:42;22.01;54.43
77056;SHT30;67471;44.918;8.614;2023-05-10T11:38:47;21.58;55.96
77056;SHT30;67471;44.918;8.614;2023-05-10T11:41:52;21.53;55.89
77056;SHT30;67471;44.918;8.614;2023-05-10T11:44:56;21.31;55.79
77056;SHT30;67471;44.918;8.614;2023-05-10T11:48:00;21.36;56.41
77056;SHT30;67471;44.918;8.614;2023-05-10T11:51:04;20.68;58.59
77056;SHT30;67471;44.918;8.614;2023-05-10T11:54:09;20.93;57.78
77056;SHT30;67471;44.918;8.614;2023-05-10T11:57:13;20.58;57.71
77056;SHT30;67471;44.918;8.614;2023-05-10T12:00:17;20.34;59.56
77056;SHT30;67471;44.918;8.614;2023-05-10T12:03:21;20.32;59.15
77056;SHT30;67471;44.918;8.614;2023-05-10T12:06:32;20.56;59.30
77056;SHT30;67471;44.918;8.614;2023-05-10T12:09:43;20.82;57.56
77056;SHT30;67471;44.918;8.614;2023-05-10T12:12:47;20.29;57.74
77056;SHT30;67471;44.918;8.614;2023-05-10T12:15:53;20.56;57.41
77056;SHT30;67471;44.918;8.614;2023-05-10T12:18:58;20.58;59.37
77056;SHT30;67471;44.918;8.614;2023-05-10T12:22:05;20.38;58.93
77056;SHT30;67471;44.918;8.614;2023-05-10T12:25:09;20.45;58.86
77056;SHT30;67471;44.918;8.614;2023-05-10T12:28:13;21.04;57.78
77056;SHT30;67471;44.918;8.614;2023-05-10T12:31:17;21.24;55.81
77056;SHT30;67471;44.918;8.614;2023-05-10T12:34:32;20.73;57.63
77056;SHT30;67471;44.918;8.614;2023-05-10T12:37:36;20.95;56.04
77056;SHT30;67471;44.918;8.614;2023-05-10T12:40:42;20.55;56.15
77056;SHT30;67471;44.918;8.614;2023-05-10T12:43:46;20.92;56.62
77056;SHT30;67471;44.918;8.614;2023-05-10T12:46:49;21.23;56.07
77056;SHT30;67471;44.918;8.614;2023-05-10T12:49:53;21.17;55.62
77056;SHT30;67471;44.918;8.614;2023-05-10T12:52:57;21.34;54.52
77056;SHT30;67471;44.918;8.614;2023-05-10T12:56:01;21.13;56.29
77056;SHT30;67471;44.918;8.614;2023-05-10T12:59:04;21.64;54.82
77056;SHT30;67471;44.918;8.614;2023-05-10T13:02:08;21.79;53.94
77056;SHT30;67471;44.918;8.614;2023-05-10T13:05:12;21.38;54.66
77056;SHT30;67471;44.918;8.614;2023-05-10T13:08:17;20.92;56.56
77056;SHT30;67471;44.918;8.614;2023-05-10T13:11:20;21.57;54.74
77056;SHT30;67471;44.918;8.614;2023-05-10T13:14:25;22.01;53.17
77056;SHT30;67471;44.918;8.614;2023-05-10T13:17:29;22.50;52.51
77056;SHT30;67471;44.918;8.614;2023-05-10T13:20:33;22.12;53.57
77056;SHT30;67471;44.918;8.614;2023-05-10T13:23:36;21.99;53.92
77056;SHT30;67471;44.918;8.614;2023-05-10T13:26:40;21.22;55.72
77056;SHT30;67471;44.918;8.614;2023-05-10T13:29:44;21.04;56.83
77056;SHT30;67471;44.918;8.614;2023-05-10T13:32:48;21.51;55.83
77056;SHT30;67471;44.918;8.614;2023-05-10T13:35:52;21.51;55.09
77056;SHT30;67471;44.918;8.614;2023-05-10T13:38:56;21.99;54.22
77056;SHT30;67471;44.918;8.614;2023-05-10T13:42:00;22.39;52.80
77056;SHT30;67471;44.918;8.614;2023-05-10T13:45:03;22.64;52.54
77056;SHT30;67471;44.918;8.614;2023-05-10T13:48:09;22.78;52.96
77056;SHT30;67471;44.918;8.614;2023-05-10T13:51:13;21.79;55.11
77056;SHT30;67471;44.918;8.614;2023-05-10T13:54:17;21.48;56.87
77056;SHT30;67471;44.918;8.614;2023-05-10T13:57:23;21.48;55.93
77056;SHT30;67471;44.918;8.614;2023-05-10T14:00:27;21.53;55.10
77056;SHT30;67471;44.918;8.614;2023-05-10T14:03:31;21.03;57.09
77056;SHT30;67471;44.918;8.614;2023-05-10T14:06:36;20.96;56.83
77056;SHT30;67471;44.918;8.614;2023-05-10T14:09:40;20.59;57.85
77056;SHT30;67471;44.918;8.614;2023-05-10T14:12:45;20.53;57.31
77056;SHT30;67471;44.918;8.614;2023-05-10T14:15:49;21.10;56.22
77056;SHT30;67471;44.918;8.614;2023-05-10T14:18:53;21.34;54.55
77056;SHT30;67471;44.918;8.614;2023-05-10T14:21:57;20.96;55.65
77056;SHT30;67471;44.918;8.614;2023-05-10T14:25:00;21.47;55.13
77056;SHT30;67471;44.918;8.614;2023-05-10T14:28:04;21.71;53.23
77056;SHT30;67471;44.918;8.614;2023-05-10T14:31:08;21.57;53.49
77056;SHT30;67471;44.918;8.614;2023-05-10T14:34:12;20.93;55.40
77056;SHT30;67471;44.918;8.614;2023-05-10T14:37:16;20.76;56.06
77056;SHT30;67471;44.918;8.614;2023-05-10T14:40:19;20.62;56.14
77056;SHT30;67471;44.918;8.614;2023-05-10T14:43:24;20.97;55.80
77056;SHT30;67471;44.918;8.614;2023-05-10T14:46:27;20.95;56.42
77056;SHT30;67471;44.918;8.614;2023-05-10T14:49:31;20.55;57.21
77056;SHT30;67471;44.918;8.614;2023-05-10T14:52:35;20.64;57.63
77056;SHT30;67471;44.918;8.614;2023-05-10T14:55:40;21.07;55.81
77056;SHT30;67471;44.918;8.614;2023-05-10T14:58:43;21.37;54.75
77056;SHT30;67471;44.918;8.614;2023-05-10T15:01:47;21.50;54.81
77056;SHT30;67471;44.918;8.614;2023-05-10T15:04:51;21.38;55.01
77056;SHT30;67471;44.918;8.614;2023-05-10T15:07:55;20.90;55.23
77056;SHT30;67471;44.918;8.614;2023-05-10T15:10:58;20.66;55.17
77056;SHT30;67471;44.918;8.614;2023-05-10T15:14:02;20.35;56.46
77056;SHT30;67471;44.918;8.614;2023-05-10T15:17:06;20.55;56.95
77056;SHT30;67471;44.918;8.614;2023-05-10T15:20:11;20.93;54.91
77056;SHT30;67471;44.918;8.614;2023-05-10T15:23:14;21.04;54.79
77056;SHT30;67471;44.918;8.614;2023-05-10T15:26:18;20.92;56.11
77056;SHT30;67471;44.918;8.614;2023-05-10T15:29:22;21.31;55.74
77056;SHT30;67471;44.918;8.614;2023-05-10T15:32:26;20.14;58.86
77056;SHT30;67471;44.918;8.614;2023-05-10T15:35:30;20.28;58.17
77056;SHT30;67471;44.918;8.614;2023-05-10T15:38:34;20.21;58.01
77056;SHT30;67471;44.918;8.614;2023-05-10T15:41:37;20.06;58.16
77056;SHT30;67471;44.918;8.614;2023-05-10T15:44:41;20.20;58.12
77056;SHT30;67471;44.918;8.614;2023-05-10T15:47:47;19.87;59.62
77056;SHT30;67471;44.918;8.614;2023-05-10T15:50:51;19.71;60.79
77056;SHT30;67471;44.918;8.614;2023-05-10T15:53:55;20.21;59.66
77056;SHT30;67471;44.918;8.614;2023-05-10T15:56:59;20.22;59.93
77056;SHT30;67471;44.918;8.614;2023-05-10T16:00:05;19.65;61.19
77056;SHT30;67471;44.918;8.614;2023-05-10T16:03:15;19.43;62.29
77056;SHT30;67471;44.918;8.614;2023-05-10T16:06:19;19.32;61.89
77056;SHT30;67471;44.918;8.614;2023-05-10T16:09:23;19.29;61.62
77056;SHT30;67471;44.918;8.614;2023-05-10T16:12:27;19.59;61.34
77056;SHT30;67471;44.918;8.614;2023-05-10T16:15:31;19.63;61.67
77056;SHT30;67471;44.918;8.614;2023-05-10T16:18:35;19.55;61.31
77056;SHT30;67471;44.918;8.614;2023-05-10T16:21:39;19.29;61.30
77056;SHT30;67471;44.918;8.614;2023-05-10T16:24:42;19.36;60.29
77056;SHT30;67471;44.918;8.614;2023-05-10T16:27:46;19.49;58.90
77056;SHT30;67471;44.918;8.614;2023-05-10T16:30:50;19.58;58.83
77056;SHT30;67471;44.918;8.614;2023-05-10T16:33:54;19.40;59.75
77056;SHT30;67471;44.918;8.614;2023-05-10T16:36:58;19.50;59.46
77056;SHT30;67471;44.918;8.614;2023-05-10T16:40:02;19.73;58.82
77056;SHT30;67471;44.918;8.614;2023-05-10T16:43:07;19.58;57.89
77056;SHT30;67471;44.918;8.614;2023-05-10T16:46:11;19.48;57.70
77056;SHT30;67471;44.918;8.614;2023-05-10T16:49:15;19.22;59.01
77056;SHT30;67471;44.918;8.614;2023-05-10T16:52:19;19.32;58.95
77056;SHT30;67471;44.918;8.614;2023-05-10T16:55:23;19.45;58.42
77056;SHT30;67471;44.918;8.614;2023-05-10T16:58:26;19.48;58.81
77056;SHT30;67471;44.918;8.614;2023-05-10T17:01:30;19.16;60.05
77056;SHT30;67471;44.918;8.614;2023-05-10T17:04:34;19.32;59.67
77056;SHT30;67471;44.918;8.614;2023-05-10T17:07:38;19.40;59.80
77056;SHT30;67471;44.918;8.614;2023-05-10T17:10:42;19.59;58.99
77056;SHT30;67471;44.918;8.614;2023-05-10T17:13:46;19.43;59.19
77056;SHT30;67471;44.918;8.614;2023-05-10T17:16:50;19.60;58.76
77056;SHT30;67471;44.918;8.614;2023-05-10T17:19:55;19.65;58.76
77056;SHT30;67471;44.918;8.614;2023-05-10T17:22:59;19.71;58.53
77056;SHT30;67471;44.918;8.614;2023-05-10T17:26:05;19.73;58.90
77056;SHT30;67471;44.918;8.614;2023-05-10T17:29:09;19.59;59.58
77056;SHT30;67471;44.918;8.614;2023-05-10T17:32:13;19.30;60.24
77056;SHT30;67471;44.918;8.614;2023-05-10T17:35:16;19.02;61.22
77056;SHT30;67471;44.918;8.614;2023-05-10T17:38:20;19.16;61.16
77056;SHT30;67471;44.918;8.614;2023-05-10T17:41:24;19.25;60.84
77056;SHT30;67471;44.918;8.614;2023-05-10T17:44:28;19.28;60.74
77056;SHT30;67471;44.918;8.614;2023-05-10T17:47:31;19.23;60.74
77056;SHT30;67471;44.918;8.614;2023-05-10T17:50:36;19.29;60.78
77056;SHT30;67471;44.918;8.614;2023-05-10T17:53:40;19.32;60.75
77056;SHT30;67471;44.918;8.614;2023-05-10T17:56:44;19.28;61.25
77056;SHT30;67471;44.918;8.614;2023-05-10T17:59:48;19.29;61.35
77056;SHT30;67471;44.918;8.614;2023-05-10T18:02:51;19.28;61.33
77056;SHT30;67471;44.918;8.614;2023-05-10T18:05:58;19.26;61.28
77056;SHT30;67471;44.918;8.614;2023-05-10T18:09:03;19.14;61.46
77056;SHT30;67471;44.918;8.614;2023-05-10T18:12:07;19.16;61.30
77056;SHT30;67471;44.918;8.614;2023-05-10T18:15:12;18.94;62.10
77056;SHT30;67471;44.918;8.614;2023-05-10T18:18:16;18.95;62.00
77056;SHT30;67471;44.918;8.614;2023-05-10T18:21:19;19.07;61.87
77056;SHT30;67471;44.918;8.614;2023-05-10T18:24:24;18.98;62.34
77056;SHT30;67471;44.918;8.614;2023-05-10T18:27:27;18.85;62.75
77056;SHT30;67471;44.918;8.614;2023-05-10T18:30:31;18.78;63.43
77056;SHT30;67471;44.918;8.614;2023-05-10T18:33:35;18.74;63.47
77056;SHT30;67471;44.918;8.614;2023-05-10T18:36:40;18.67;63.87
77056;SHT30;67471;44.918;8.614;2023-05-10T18:39:46;18.65;63.90
77056;SHT30;67471;44.918;8.614;2023-05-10T18:42:50;18.51;64.41
77056;SHT30;67471;44.918;8.614;2023-05-10T18:45:54;18.36;64.99
77056;SHT30;67471;44.918;8.614;2023-05-10T18:48:58;18.41;64.91
77056;SHT30;67471;44.918;8.614;2023-05-10T18:52:01;18.49;64.91
77056;SHT30;67471;44.918;8.614;2023-05-10T18:55:06;18.40;64.81
77056;SHT30;67471;44.918;8.614;2023-05-10T18:58:10;18.29;64.93
77056;SHT30;67471;44.918;8.614;2023-05-10T19:01:15;18.26;64.95
77056;SHT30;67471;44.918;8.614;2023-05-10T19:04:19;18.12;65.39
77056;SHT30;67471;44.918;8.614;2023-05-10T19:07:22;18.17;65.32
77056;SHT30;67471;44.918;8.614;2023-05-10T19:10:26;18.13;65.41
77056;SHT30;67471;44.918;8.614;2023-05-10T19:13:30;18.12;65.54
77056;SHT30;67471;44.918;8.614;2023-05-10T19:16:34;18.03;65.71
77056;SHT30;67471;44.918;8.614;2023-05-10T19:19:38;17.92;65.90
77056;SHT30;67471;44.918;8.614;2023-05-10T19:22:41;17.85;66.05
77056;SHT30;67471;44.918;8.614;2023-05-10T19:25:45;17.54;66.84
77056;SHT30;67471;44.918;8.614;2023-05-10T19:28:50;17.61;66.45
77056;SHT30;67471;44.918;8.614;2023-05-10T19:31:55;17.44;66.81
77056;SHT30;67471;44.918;8.614;2023-05-10T19:34:59;17.24;67.09
77056;SHT30;67471;44.918;8.614;2023-05-10T19:38:04;17.11;67.18
77056;SHT30;67471;44.918;8.614;2023-05-10T19:41:07;17.11;67.32
77056;SHT30;67471;44.918;8.614;2023-05-10T19:44:11;16.90;67.79
77056;SHT30;67471;44.918;8.614;2023-05-10T19:47:15;16.70;68.03